sensor_id;sensor_type;location;lat;lon;timestamp;P1;durP1;ratioP1;P2;durP2;ratioP2
9330;SDS011;4704;50.470;12.072;2022-12-28T00:02:18;2.67;;;1.92;;
9330;SDS011;4704;50.470;12.072;2022-12-28T00:04:46;2.13;;;1.92;;
9330;SDS011;4704;50.470;12.072;2022-12-28T00:07:14;2.20;;;2.00;;
9330;SDS011;4704;50.470;12.072;2022-12-28T00:09:43;2.30;;;2.10;;
9330;SDS011;4704;50.470;12.072;2022-12-28T00:12:11;2.17;;;1.90;;
9330;SDS011;4704;50.470;12.072;2022-12-28T00:14:39;2.08;;;1.90;;
9330;SDS011;4704;50.470;12.072;2022-12-28T00:17:06;2.28;;;2.00;;
9330;SDS011;4704;50.470;12.072;2022-12-28T00:19:34;1.77;;;1.67;;
9330;SDS011;4704;50.470;12.072;2022-12-28T00:22:01;2.00;;;1.90;;
9330;SDS011;4704;50.470;12.072;2022-12-28T00:24:29;2.00;;;1.80;;
9330;SDS011;4704;50.470;12.072;2022-12-28T00:26:58;1.90;;;1.70;;
9330;SDS011;4704;50.470;12.072;2022-12-28T00:29:26;1.75;;;1.65;;
9330;SDS011;4704;50.470;12.072;2022-12-28T00:31:54;2.10;;;1.88;;
9330;SDS011;4704;50.470;12.072;2022-12-28T00:34:21;2.17;;;1.98;;
9330;SDS011;4704;50.470;12.072;2022-12-28T00:36:49;1.98;;;1.60;;
9330;SDS011;4704;50.470;12.072;2022-12-28T00:39:17;2.25;;;1.70;;
9330;SDS011;4704;50.470;12.072;2022-12-28T00:41:45;1.95;;;1.85;;
9330;SDS011;4704;50.470;12.072;2022-12-28T00:44:14;1.65;;;1.55;;
9330;SDS011;4704;50.470;12.072;2022-12-28T00:46:42;1.67;;;1.58;;
9330;SDS011;4704;50.470;12.072;2022-12-28T00:49:10;1.55;;;1.45;;
9330;SDS011;4704;50.470;12.072;2022-12-28T00:51:38;1.52;;;1.42;;
9330;SDS011;4704;50.470;12.072;2022-12-28T00:54:05;1.88;;;1.77;;
9330;SDS011;4704;50.470;12.072;2022-12-28T00:56:33;1.88;;;1.65;;
9330;SDS011;4704;50.470;12.072;2022-12-28T00:59:01;1.85;;;1.75;;
9330;SDS011;4704;50.470;12.072;2022-12-28T01:01:30;1.60;;;1.50;;
9330;SDS011;4704;50.470;12.072;2022-12-28T01:03:58;1.52;;;1.40;;
9330;SDS011;4704;50.470;12.072;2022-12-28T01:06:26;1.50;;;1.40;;
9330;SDS011;4704;50.470;12.072;2022-12-28T01:08:54;2.03;;;1.60;;
9330;SDS011;4704;50.470;12.072;2022-12-28T01:11:22;1.75;;;1.40;;
9330;SDS011;4704;50.470;12.072;2022-12-28T01:13:51;1.73;;;1.20;;
9330;SDS011;4704;50.470;12.072;2022-12-28T01:16:20;1.70;;;1.50;;
9330;SDS011;4704;50.470;12.072;2022-12-28T01:18:50;1.77;;;1.52;;
9330;SDS011;4704;50.470;12.072;2022-12-28T01:21:19;1.30;;;1.20;;
9330;SDS011;4704;50.470;12.072;2022-12-28T01:23:47;1.33;;;1.23;;
9330;SDS011;4704;50.470;12.072;2022-12-28T01:26:15;1.33;;;1.23;;
9330;SDS011;4704;50.470;12.072;2022-12-28T01:28:42;1.98;;;1.60;;
9330;SDS011;4704;50.470;12.072;2022-12-28T01:31:11;1.52;;;1.25;;
9330;SDS011;4704;50.470;12.072;2022-12-28T01:33:39;1.40;;;1.27;;
9330;SDS011;4704;50.470;12.072;2022-12-28T01:36:08;1.30;;;1.20;;
9330;SDS011;4704;50.470;12.072;2022-12-28T01:38:38;1.25;;;1.15;;
9330;SDS011;4704;50.470;12.072;2022-12-28T01:41:05;1.20;;;1.10;;
9330;SDS011;4704;50.470;12.072;2022-12-28T01:43:37;1.30;;;1.20;;
9330;SDS011;4704;50.470;12.072;2022-12-28T01:46:06;1.13;;;1.02;;
9330;SDS011;4704;50.470;12.072;2022-12-28T01:48:34;1.23;;;1.10;;
9330;SDS011;4704;50.470;12.072;2022-12-28T01:51:03;1.17;;;1.10;;
9330;SDS011;4704;50.470;12.072;2022-12-28T01:53:32;1.40;;;1.30;;
9330;SDS011;4704;50.470;12.072;2022-12-28T01:56:00;1.42;;;1.33;;
9330;SDS011;4704;50.470;12.072;2022-12-28T01:58:28;1.33;;;1.23;;
9330;SDS011;4704;50.470;12.072;2022-12-28T02:00:58;1.13;;;1.02;;
9330;SDS011;4704;50.470;12.072;2022-12-28T02:03:26;1.20;;;1.10;;
9330;SDS011;4704;50.470;12.072;2022-12-28T02:05:54;1.15;;;1.05;;
9330;SDS011;4704;50.470;12.072;2022-12-28T02:08:25;1.33;;;1.10;;
9330;SDS011;4704;50.470;12.072;2022-12-28T02:10:56;1.30;;;1.20;;
9330;SDS011;4704;50.470;12.072;2022-12-28T02:13:23;1.45;;;1.17;;
9330;SDS011;4704;50.470;12.072;2022-12-28T02:15:52;1.67;;;1.00;;
9330;SDS011;4704;50.470;12.072;2022-12-28T02:18:20;1.35;;;1.10;;
9330;SDS011;4704;50.470;12.072;2022-12-28T02:20:58;1.17;;;1.08;;
9330;SDS011;4704;50.470;12.072;2022-12-28T02:23:35;1.58;;;1.23;;
9330;SDS011;4704;50.470;12.072;2022-12-28T02:26:16;1.15;;;1.05;;
9330;SDS011;4704;50.470;12.072;2022-12-28T02:28:53;1.23;;;1.10;;
9330;SDS011;4704;50.470;12.072;2022-12-28T02:31:25;1.05;;;1.00;;
9330;SDS011;4704;50.470;12.072;2022-12-28T02:33:57;1.20;;;1.10;;
9330;SDS011;4704;50.470;12.072;2022-12-28T02:36:29;1.17;;;1.00;;
9330;SDS011;4704;50.470;12.072;2022-12-28T02:39:00;1.05;;;0.95;;
9330;SDS011;4704;50.470;12.072;2022-12-28T02:41:30;1.08;;;0.95;;
9330;SDS011;4704;50.470;12.072;2022-12-28T02:44:00;1.20;;;1.10;;
9330;SDS011;4704;50.470;12.072;2022-12-28T02:46:28;0.93;;;0.90;;
9330;SDS011;4704;50.470;12.072;2022-12-28T02:49:17;1.27;;;1.17;;
9330;SDS011;4704;50.470;12.072;2022-12-28T02:52:06;0.85;;;0.85;;
9330;SDS011;4704;50.470;12.072;2022-12-28T02:54:45;0.80;;;0.80;;
9330;SDS011;4704;50.470;12.072;2022-12-28T02:57:40;1.20;;;1.10;;
9330;SDS011;4704;50.470;12.072;2022-12-28T03:00:12;1.30;;;1.13;;
9330;SDS011;4704;50.470;12.072;2022-12-28T03:02:45;1.20;;;1.10;;
9330;SDS011;4704;50.470;12.072;2022-12-28T03:05:18;1.20;;;1.10;;
9330;SDS011;4704;50.470;12.072;2022-12-28T03:08:12;1.30;;;1.20;;
9330;SDS011;4704;50.470;12.072;2022-12-28T03:10:45;1.10;;;1.00;;
9330;SDS011;4704;50.470;12.072;2022-12-28T03:13:15;1.00;;;0.90;;
9330;SDS011;4704;50.470;12.072;2022-12-28T03:16:04;1.02;;;0.90;;
9330;SDS011;4704;50.470;12.072;2022-12-28T03:18:32;1.00;;;0.85;;
9330;SDS011;4704;50.470;12.072;2022-12-28T03:21:19;1.00;;;1.00;;
9330;SDS011;4704;50.470;12.072;2022-12-28T03:24:04;1.40;;;1.15;;
9330;SDS011;4704;50.470;12.072;2022-12-28T03:26:51;0.85;;;0.80;;
9330;SDS011;4704;50.470;12.072;2022-12-28T03:29:38;0.82;;;0.80;;
9330;SDS011;4704;50.470;12.072;2022-12-28T03:32:26;0.90;;;0.90;;
9330;SDS011;4704;50.470;12.072;2022-12-28T03:34:54;0.80;;;0.80;;
9330;SDS011;4704;50.470;12.072;2022-12-28T03:37:23;1.10;;;1.00;;
9330;SDS011;4704;50.470;12.072;2022-12-28T03:39:52;0.70;;;0.70;;
9330;SDS011;4704;50.470;12.072;2022-12-28T03:42:23;1.00;;;0.90;;
9330;SDS011;4704;50.470;12.072;2022-12-28T03:45:11;0.80;;;0.80;;
9330;SDS011;4704;50.470;12.072;2022-12-28T03:47:44;0.95;;;0.90;;
9330;SDS011;4704;50.470;12.072;2022-12-28T03:50:14;1.17;;;1.08;;
9330;SDS011;4704;50.470;12.072;2022-12-28T03:52:42;1.02;;;1.00;;
9330;SDS011;4704;50.470;12.072;2022-12-28T03:55:10;1.30;;;0.90;;
9330;SDS011;4704;50.470;12.072;2022-12-28T03:57:38;1.02;;;0.93;;
9330;SDS011;4704;50.470;12.072;2022-12-28T04:00:06;0.93;;;0.80;;
9330;SDS011;4704;50.470;12.072;2022-12-28T04:02:35;1.10;;;0.73;;
9330;SDS011;4704;50.470;12.072;2022-12-28T04:05:05;0.75;;;0.75;;
9330;SDS011;4704;50.470;12.072;2022-12-28T04:07:33;1.10;;;1.00;;
9330;SDS011;4704;50.470;12.072;2022-12-28T04:10:00;0.80;;;0.80;;
9330;SDS011;4704;50.470;12.072;2022-12-28T04:12:28;0.90;;;0.80;;
9330;SDS011;4704;50.470;12.072;2022-12-28T04:14:56;0.90;;;0.88;;
9330;SDS011;4704;50.470;12.072;2022-12-28T04:17:24;0.90;;;0.85;;
9330;SDS011;4704;50.470;12.072;2022-12-28T04:19:51;1.08;;;0.75;;
9330;SDS011;4704;50.470;12.072;2022-12-28T04:22:21;0.85;;;0.70;;
9330;SDS011;4704;50.470;12.072;2022-12-28T04:24:48;0.80;;;0.80;;
9330;SDS011;4704;50.470;12.072;2022-12-28T04:27:17;0.82;;;0.82;;
9330;SDS011;4704;50.470;12.072;2022-12-28T04:29:44;0.70;;;0.70;;
9330;SDS011;4704;50.470;12.072;2022-12-28T04:32:12;0.80;;;0.80;;
9330;SDS011;4704;50.470;12.072;2022-12-28T04:34:40;0.70;;;0.70;;
9330;SDS011;4704;50.470;12.072;2022-12-28T04:37:07;0.85;;;0.85;;
9330;SDS011;4704;50.470;12.072;2022-12-28T04:39:36;0.80;;;0.70;;
9330;SDS011;4704;50.470;12.072;2022-12-28T04:42:04;0.73;;;0.70;;
9330;SDS011;4704;50.470;12.072;2022-12-28T04:44:32;0.73;;;0.73;;
9330;SDS011;4704;50.470;12.072;2022-12-28T04:47:00;0.75;;;0.75;;
9330;SDS011;4704;50.470;12.072;2022-12-28T04:49:27;0.88;;;0.85;;
9330;SDS011;4704;50.470;12.072;2022-12-28T04:51:55;0.85;;;0.77;;
9330;SDS011;4704;50.470;12.072;2022-12-28T04:54:23;0.80;;;0.70;;
9330;SDS011;4704;50.470;12.072;2022-12-28T04:56:52;0.77;;;0.77;;
9330;SDS011;4704;50.470;12.072;2022-12-28T04:59:20;0.80;;;0.80;;
9330;SDS011;4704;50.470;12.072;2022-12-28T05:01:48;0.50;;;0.50;;
9330;SDS011;4704;50.470;12.072;2022-12-28T05:04:15;0.80;;;0.80;;
9330;SDS011;4704;50.470;12.072;2022-12-28T05:06:42;0.95;;;0.82;;
9330;SDS011;4704;50.470;12.072;2022-12-28T05:09:10;0.70;;;0.70;;
9330;SDS011;4704;50.470;12.072;2022-12-28T05:11:37;0.95;;;0.85;;
9330;SDS011;4704;50.470;12.072;2022-12-28T05:14:06;1.15;;;0.85;;
9330;SDS011;4704;50.470;12.072;2022-12-28T05:16:34;0.68;;;0.68;;
9330;SDS011;4704;50.470;12.072;2022-12-28T05:19:01;0.80;;;0.80;;
9330;SDS011;4704;50.470;12.072;2022-12-28T05:21:28;1.08;;;0.80;;
9330;SDS011;4704;50.470;12.072;2022-12-28T05:23:56;0.50;;;0.50;;
9330;SDS011;4704;50.470;12.072;2022-12-28T05:26:24;0.82;;;0.80;;
9330;SDS011;4704;50.470;12.072;2022-12-28T05:28:53;0.80;;;0.60;;
9330;SDS011;4704;50.470;12.072;2022-12-28T05:31:22;0.60;;;0.60;;
9330;SDS011;4704;50.470;12.072;2022-12-28T05:33:50;0.60;;;0.60;;
9330;SDS011;4704;50.470;12.072;2022-12-28T05:36:18;0.80;;;0.80;;
9330;SDS011;4704;50.470;12.072;2022-12-28T05:38:46;0.70;;;0.70;;
9330;SDS011;4704;50.470;12.072;2022-12-28T05:41:14;1.02;;;0.80;;
9330;SDS011;4704;50.470;12.072;2022-12-28T05:43:42;0.70;;;0.70;;
9330;SDS011;4704;50.470;12.072;2022-12-28T05:46:11;0.60;;;0.60;;
9330;SDS011;4704;50.470;12.072;2022-12-28T05:48:40;0.95;;;0.60;;
9330;SDS011;4704;50.470;12.072;2022-12-28T05:51:09;0.95;;;0.70;;
9330;SDS011;4704;50.470;12.072;2022-12-28T05:53:37;0.85;;;0.70;;
9330;SDS011;4704;50.470;12.072;2022-12-28T05:56:05;0.70;;;0.70;;
9330;SDS011;4704;50.470;12.072;2022-12-28T05:58:33;1.23;;;0.68;;
9330;SDS011;4704;50.470;12.072;2022-12-28T06:01:04;0.73;;;0.73;;
9330;SDS011;4704;50.470;12.072;2022-12-28T06:03:31;0.70;;;0.70;;
9330;SDS011;4704;50.470;12.072;2022-12-28T06:06:04;0.77;;;0.77;;
9330;SDS011;4704;50.470;12.072;2022-12-28T06:08:32;1.35;;;0.80;;
9330;SDS011;4704;50.470;12.072;2022-12-28T06:11:00;0.80;;;0.70;;
9330;SDS011;4704;50.470;12.072;2022-12-28T06:13:27;0.60;;;0.60;;
9330;SDS011;4704;50.470;12.072;2022-12-28T06:15:55;0.70;;;0.60;;
9330;SDS011;4704;50.470;12.072;2022-12-28T06:18:23;0.60;;;0.60;;
9330;SDS011;4704;50.470;12.072;2022-12-28T06:20:50;0.60;;;0.60;;
9330;SDS011;4704;50.470;12.072;2022-12-28T06:23:19;0.90;;;0.80;;
9330;SDS011;4704;50.470;12.072;2022-12-28T06:25:47;0.85;;;0.80;;
9330;SDS011;4704;50.470;12.072;2022-12-28T06:28:15;0.85;;;0.70;;
9330;SDS011;4704;50.470;12.072;2022-12-28T06:30:42;0.70;;;0.70;;
9330;SDS011;4704;50.470;12.072;2022-12-28T06:33:10;1.35;;;0.70;;
9330;SDS011;4704;50.470;12.072;2022-12-28T06:35:39;0.70;;;0.70;;
9330;SDS011;4704;50.470;12.072;2022-12-28T06:38:07;0.68;;;0.68;;
9330;SDS011;4704;50.470;12.072;2022-12-28T06:40:35;0.80;;;0.63;;
9330;SDS011;4704;50.470;12.072;2022-12-28T06:43:03;0.70;;;0.70;;
9330;SDS011;4704;50.470;12.072;2022-12-28T06:45:30;0.70;;;0.70;;
9330;SDS011;4704;50.470;12.072;2022-12-28T06:47:58;0.70;;;0.70;;
9330;SDS011;4704;50.470;12.072;2022-12-28T06:50:25;0.90;;;0.70;;
9330;SDS011;4704;50.470;12.072;2022-12-28T06:52:52;0.88;;;0.73;;
9330;SDS011;4704;50.470;12.072;2022-12-28T06:55:20;1.00;;;0.90;;
9330;SDS011;4704;50.470;12.072;2022-12-28T06:57:49;0.70;;;0.70;;
9330;SDS011;4704;50.470;12.072;2022-12-28T07:00:16;0.93;;;0.70;;
9330;SDS011;4704;50.470;12.072;2022-12-28T07:02:43;0.88;;;0.80;;
9330;SDS011;4704;50.470;12.072;2022-12-28T07:05:11;0.77;;;0.70;;
9330;SDS011;4704;50.470;12.072;2022-12-28T07:07:38;0.60;;;0.60;;
9330;SDS011;4704;50.470;12.072;2022-12-28T07:10:06;0.80;;;0.73;;
9330;SDS011;4704;50.470;12.072;2022-12-28T07:12:33;0.88;;;0.80;;
9330;SDS011;4704;50.470;12.072;2022-12-28T07:15:03;0.95;;;0.73;;
9330;SDS011;4704;50.470;12.072;2022-12-28T07:17:30;0.70;;;0.70;;
9330;SDS011;4704;50.470;12.072;2022-12-28T07:19:58;0.90;;;0.90;;
9330;SDS011;4704;50.470;12.072;2022-12-28T07:22:25;1.02;;;0.80;;
9330;SDS011;4704;50.470;12.072;2022-12-28T07:24:52;0.77;;;0.77;;
9330;SDS011;4704;50.470;12.072;2022-12-28T07:27:20;0.80;;;0.80;;
9330;SDS011;4704;50.470;12.072;2022-12-28T07:29:47;0.60;;;0.60;;
9330;SDS011;4704;50.470;12.072;2022-12-28T07:32:16;0.70;;;0.70;;
9330;SDS011;4704;50.470;12.072;2022-12-28T07:34:44;0.80;;;0.80;;
9330;SDS011;4704;50.470;12.072;2022-12-28T07:37:11;0.88;;;0.60;;
9330;SDS011;4704;50.470;12.072;2022-12-28T07:39:38;0.98;;;0.82;;
9330;SDS011;4704;50.470;12.072;2022-12-28T07:42:06;1.00;;;0.75;;
9330;SDS011;4704;50.470;12.072;2022-12-28T07:44:35;0.90;;;0.88;;
9330;SDS011;4704;50.470;12.072;2022-12-28T07:47:02;1.17;;;0.88;;
9330;SDS011;4704;50.470;12.072;2022-12-28T07:49:32;1.13;;;0.88;;
9330;SDS011;4704;50.470;12.072;2022-12-28T07:51:59;0.75;;;0.75;;
9330;SDS011;4704;50.470;12.072;2022-12-28T07:54:27;0.88;;;0.80;;
9330;SDS011;4704;50.470;12.072;2022-12-28T07:56:54;1.08;;;0.90;;
9330;SDS011;4704;50.470;12.072;2022-12-28T07:59:22;0.63;;;0.63;;
9330;SDS011;4704;50.470;12.072;2022-12-28T08:01:50;0.80;;;0.80;;
9330;SDS011;4704;50.470;12.072;2022-12-28T08:04:17;0.95;;;0.70;;
9330;SDS011;4704;50.470;12.072;2022-12-28T08:06:46;1.17;;;0.82;;
9330;SDS011;4704;50.470;12.072;2022-12-28T08:09:14;0.93;;;0.90;;
9330;SDS011;4704;50.470;12.072;2022-12-28T08:11:42;0.80;;;0.80;;
9330;SDS011;4704;50.470;12.072;2022-12-28T08:14:10;0.73;;;0.73;;
9330;SDS011;4704;50.470;12.072;2022-12-28T08:16:38;0.95;;;0.80;;
9330;SDS011;4704;50.470;12.072;2022-12-28T08:19:06;1.38;;;0.90;;
9330;SDS011;4704;50.470;12.072;2022-12-28T08:21:34;1.10;;;1.00;;
9330;SDS011;4704;50.470;12.072;2022-12-28T08:24:04;1.30;;;1.00;;
9330;SDS011;4704;50.470;12.072;2022-12-28T08:26:33;1.00;;;0.90;;
9330;SDS011;4704;50.470;12.072;2022-12-28T08:29:01;0.75;;;0.75;;
9330;SDS011;4704;50.470;12.072;2022-12-28T08:31:30;1.10;;;1.00;;
9330;SDS011;4704;50.470;12.072;2022-12-28T08:33:58;0.80;;;0.80;;
9330;SDS011;4704;50.470;12.072;2022-12-28T08:36:26;0.90;;;0.90;;
9330;SDS011;4704;50.470;12.072;2022-12-28T08:38:54;1.27;;;1.17;;
9330;SDS011;4704;50.470;12.072;2022-12-28T08:41:23;1.08;;;0.98;;
9330;SDS011;4704;50.470;12.072;2022-12-28T08:43:51;1.05;;;0.95;;
9330;SDS011;4704;50.470;12.072;2022-12-28T08:46:20;0.82;;;0.82;;
9330;SDS011;4704;50.470;12.072;2022-12-28T08:48:48;1.10;;;0.80;;
9330;SDS011;4704;50.470;12.072;2022-12-28T08:51:16;0.93;;;0.93;;
9330;SDS011;4704;50.470;12.072;2022-12-28T08:53:44;1.10;;;1.00;;
9330;SDS011;4704;50.470;12.072;2022-12-28T08:56:13;1.10;;;1.00;;
9330;SDS011;4704;50.470;12.072;2022-12-28T08:58:43;1.17;;;0.90;;
9330;SDS011;4704;50.470;12.072;2022-12-28T09:01:12;1.30;;;0.73;;
9330;SDS011;4704;50.470;12.072;2022-12-28T09:03:40;0.73;;;0.73;;
9330;SDS011;4704;50.470;12.072;2022-12-28T09:06:08;0.90;;;0.90;;
9330;SDS011;4704;50.470;12.072;2022-12-28T09:08:36;0.80;;;0.80;;
9330;SDS011;4704;50.470;12.072;2022-12-28T09:11:05;1.00;;;0.82;;
9330;SDS011;4704;50.470;12.072;2022-12-28T09:13:33;1.25;;;0.93;;
9330;SDS011;4704;50.470;12.072;2022-12-28T09:16:03;0.80;;;0.80;;
9330;SDS011;4704;50.470;12.072;2022-12-28T09:18:30;0.80;;;0.80;;
9330;SDS011;4704;50.470;12.072;2022-12-28T09:21:03;1.08;;;0.98;;
9330;SDS011;4704;50.470;12.072;2022-12-28T09:23:30;0.80;;;0.80;;
9330;SDS011;4704;50.470;12.072;2022-12-28T09:26:02;0.93;;;0.85;;
9330;SDS011;4704;50.470;12.072;2022-12-28T09:28:29;0.82;;;0.77;;
9330;SDS011;4704;50.470;12.072;2022-12-28T09:30:57;0.80;;;0.77;;
9330;SDS011;4704;50.470;12.072;2022-12-28T09:33:26;1.02;;;0.85;;
9330;SDS011;4704;50.470;12.072;2022-12-28T09:36:11;1.20;;;0.90;;
9330;SDS011;4704;50.470;12.072;2022-12-28T09:38:38;0.80;;;0.80;;
9330;SDS011;4704;50.470;12.072;2022-12-28T09:41:10;0.93;;;0.90;;
9330;SDS011;4704;50.470;12.072;2022-12-28T09:43:38;0.98;;;0.90;;
9330;SDS011;4704;50.470;12.072;2022-12-28T09:46:07;0.95;;;0.88;;
9330;SDS011;4704;50.470;12.072;2022-12-28T09:48:36;0.90;;;0.90;;
9330;SDS011;4704;50.470;12.072;2022-12-28T09:51:04;1.17;;;1.08;;
9330;SDS011;4704;50.470;12.072;2022-12-28T09:53:32;0.88;;;0.80;;
9330;SDS011;4704;50.470;12.072;2022-12-28T09:56:02;1.10;;;1.00;;
9330;SDS011;4704;50.470;12.072;2022-12-28T09:58:32;1.02;;;0.95;;
9330;SDS011;4704;50.470;12.072;2022-12-28T10:01:00;0.98;;;0.80;;
9330;SDS011;4704;50.470;12.072;2022-12-28T10:03:31;1.08;;;0.90;;
9330;SDS011;4704;50.470;12.072;2022-12-28T10:06:00;1.27;;;0.80;;
9330;SDS011;4704;50.470;12.072;2022-12-28T10:08:28;1.10;;;0.80;;
9330;SDS011;4704;50.470;12.072;2022-12-28T10:10:57;0.93;;;0.70;;
9330;SDS011;4704;50.470;12.072;2022-12-28T10:13:26;0.98;;;0.80;;
9330;SDS011;4704;50.470;12.072;2022-12-28T10:15:54;1.67;;;0.80;;
9330;SDS011;4704;50.470;12.072;2022-12-28T10:18:22;0.88;;;0.80;;
9330;SDS011;4704;50.470;12.072;2022-12-28T10:20:50;1.67;;;1.58;;
9330;SDS011;4704;50.470;12.072;2022-12-28T10:23:20;9.93;;;8.93;;
9330;SDS011;4704;50.470;12.072;2022-12-28T10:25:50;15.40;;;13.80;;
9330;SDS011;4704;50.470;12.072;2022-12-28T10:28:18;20.13;;;17.98;;
9330;SDS011;4704;50.470;12.072;2022-12-28T10:30:48;23.63;;;21.13;;
9330;SDS011;4704;50.470;12.072;2022-12-28T10:33:27;31.02;;;25.92;;
9330;SDS011;4704;50.470;12.072;2022-12-28T10:35:55;30.50;;;27.30;;
9330;SDS011;4704;50.470;12.072;2022-12-28T10:38:25;33.05;;;28.15;;
9330;SDS011;4704;50.470;12.072;2022-12-28T10:40:55;32.35;;;28.85;;
9330;SDS011;4704;50.470;12.072;2022-12-28T10:43:22;33.28;;;28.45;;
9330;SDS011;4704;50.470;12.072;2022-12-28T10:45:53;29.73;;;26.48;;
9330;SDS011;4704;50.470;12.072;2022-12-28T10:48:21;28.35;;;25.30;;
9330;SDS011;4704;50.470;12.072;2022-12-28T10:50:51;29.88;;;25.45;;
9330;SDS011;4704;50.470;12.072;2022-12-28T10:53:25;27.83;;;24.27;;
9330;SDS011;4704;50.470;12.072;2022-12-28T10:56:11;25.90;;;23.05;;
9330;SDS011;4704;50.470;12.072;2022-12-28T10:58:42;25.33;;;22.63;;
9330;SDS011;4704;50.470;12.072;2022-12-28T11:01:14;24.13;;;21.50;;
9330;SDS011;4704;50.470;12.072;2022-12-28T11:03:43;26.80;;;24.08;;
9330;SDS011;4704;50.470;12.072;2022-12-28T11:06:12;25.25;;;22.65;;
9330;SDS011;4704;50.470;12.072;2022-12-28T11:08:42;23.58;;;21.02;;
9330;SDS011;4704;50.470;12.072;2022-12-28T11:11:19;24.23;;;21.65;;
9330;SDS011;4704;50.470;12.072;2022-12-28T11:13:49;24.20;;;21.75;;
9330;SDS011;4704;50.470;12.072;2022-12-28T11:16:17;24.02;;;21.52;;
9330;SDS011;4704;50.470;12.072;2022-12-28T11:18:45;23.30;;;20.92;;
9330;SDS011;4704;50.470;12.072;2022-12-28T11:21:14;22.77;;;20.27;;
9330;SDS011;4704;50.470;12.072;2022-12-28T11:23:45;21.65;;;19.45;;
9330;SDS011;4704;50.470;12.072;2022-12-28T11:26:13;21.63;;;19.42;;
9330;SDS011;4704;50.470;12.072;2022-12-28T11:28:40;21.73;;;19.33;;
9330;SDS011;4704;50.470;12.072;2022-12-28T11:31:11;21.00;;;18.83;;
9330;SDS011;4704;50.470;12.072;2022-12-28T11:33:43;20.45;;;18.35;;
9330;SDS011;4704;50.470;12.072;2022-12-28T11:36:13;18.85;;;16.88;;
9330;SDS011;4704;50.470;12.072;2022-12-28T11:38:41;18.17;;;16.38;;
9330;SDS011;4704;50.470;12.072;2022-12-28T11:41:11;20.88;;;18.77;;
9330;SDS011;4704;50.470;12.072;2022-12-28T11:43:47;23.13;;;20.80;;
9330;SDS011;4704;50.470;12.072;2022-12-28T11:49:25;21.20;;;19.23;;
9330;SDS011;4704;50.470;12.072;2022-12-28T11:54:38;19.95;;;17.85;;
9330;SDS011;4704;50.470;12.072;2022-12-28T12:03:00;17.83;;;16.13;;
9330;SDS011;4704;50.470;12.072;2022-12-28T12:05:47;18.15;;;16.35;;
9330;SDS011;4704;50.470;12.072;2022-12-28T12:11:27;16.63;;;15.02;;
9330;SDS011;4704;50.470;12.072;2022-12-28T12:13:58;16.63;;;14.85;;
9330;SDS011;4704;50.470;12.072;2022-12-28T12:16:27;15.65;;;14.15;;
9330;SDS011;4704;50.470;12.072;2022-12-28T12:18:58;16.48;;;14.88;;
9330;SDS011;4704;50.470;12.072;2022-12-28T12:21:30;15.27;;;13.77;;
9330;SDS011;4704;50.470;12.072;2022-12-28T12:24:00;15.38;;;13.88;;
9330;SDS011;4704;50.470;12.072;2022-12-28T12:26:32;15.80;;;14.20;;
9330;SDS011;4704;50.470;12.072;2022-12-28T12:29:03;14.90;;;13.32;;
9330;SDS011;4704;50.470;12.072;2022-12-28T12:31:33;14.27;;;12.88;;
9330;SDS011;4704;50.470;12.072;2022-12-28T12:34:04;13.90;;;12.68;;
9330;SDS011;4704;50.470;12.072;2022-12-28T12:36:44;13.40;;;12.10;;
9330;SDS011;4704;50.470;12.072;2022-12-28T12:39:20;14.07;;;12.55;;
9330;SDS011;4704;50.470;12.072;2022-12-28T12:41:52;12.57;;;11.48;;
9330;SDS011;4704;50.470;12.072;2022-12-28T12:44:25;12.57;;;11.32;;
9330;SDS011;4704;50.470;12.072;2022-12-28T12:50:00;12.02;;;10.82;;
9330;SDS011;4704;50.470;12.072;2022-12-28T12:52:36;11.10;;;10.00;;
9330;SDS011;4704;50.470;12.072;2022-12-28T12:55:09;11.18;;;10.07;;
9330;SDS011;4704;50.470;12.072;2022-12-28T12:57:41;11.00;;;9.93;;
9330;SDS011;4704;50.470;12.072;2022-12-28T13:00:13;10.65;;;9.65;;
9330;SDS011;4704;50.470;12.072;2022-12-28T13:05:28;10.00;;;9.05;;
9330;SDS011;4704;50.470;12.072;2022-12-28T13:07:56;9.73;;;8.82;;
9330;SDS011;4704;50.470;12.072;2022-12-28T13:10:25;10.35;;;9.25;;
9330;SDS011;4704;50.470;12.072;2022-12-28T13:12:55;9.23;;;8.32;;
9330;SDS011;4704;50.470;12.072;2022-12-28T13:15:24;9.40;;;8.50;;
9330;SDS011;4704;50.470;12.072;2022-12-28T13:17:58;8.80;;;8.00;;
9330;SDS011;4704;50.470;12.072;2022-12-28T13:20:26;8.45;;;7.57;;
9330;SDS011;4704;50.470;12.072;2022-12-28T13:22:54;8.38;;;7.57;;
9330;SDS011;4704;50.470;12.072;2022-12-28T13:25:23;8.30;;;7.38;;
9330;SDS011;4704;50.470;12.072;2022-12-28T13:27:50;7.80;;;7.00;;
9330;SDS011;4704;50.470;12.072;2022-12-28T13:30:18;7.57;;;6.85;;
9330;SDS011;4704;50.470;12.072;2022-12-28T13:32:48;7.63;;;6.82;;
9330;SDS011;4704;50.470;12.072;2022-12-28T13:35:17;7.68;;;6.97;;
9330;SDS011;4704;50.470;12.072;2022-12-28T13:37:58;7.47;;;6.75;;
9330;SDS011;4704;50.470;12.072;2022-12-28T13:40:26;6.43;;;5.80;;
9330;SDS011;4704;50.470;12.072;2022-12-28T13:42:55;7.20;;;6.50;;
9330;SDS011;4704;50.470;12.072;2022-12-28T13:45:27;7.60;;;6.47;;
9330;SDS011;4704;50.470;12.072;2022-12-28T13:47:54;6.57;;;5.90;;
9330;SDS011;4704;50.470;12.072;2022-12-28T13:50:23;6.22;;;5.63;;
9330;SDS011;4704;50.470;12.072;2022-12-28T13:52:54;6.80;;;6.10;;
9330;SDS011;4704;50.470;12.072;2022-12-28T13:55:28;6.18;;;5.65;;
9330;SDS011;4704;50.470;12.072;2022-12-28T13:57:57;5.82;;;5.30;;
9330;SDS011;4704;50.470;12.072;2022-12-28T14:00:25;6.13;;;5.63;;
9330;SDS011;4704;50.470;12.072;2022-12-28T14:02:53;5.90;;;5.30;;
9330;SDS011;4704;50.470;12.072;2022-12-28T14:05:22;5.60;;;5.10;;
9330;SDS011;4704;50.470;12.072;2022-12-28T14:07:50;5.60;;;5.10;;
9330;SDS011;4704;50.470;12.072;2022-12-28T14:10:18;5.50;;;5.00;;
9330;SDS011;4704;50.470;12.072;2022-12-28T14:12:48;5.43;;;4.93;;
9330;SDS011;4704;50.470;12.072;2022-12-28T14:15:15;5.40;;;4.90;;
9330;SDS011;4704;50.470;12.072;2022-12-28T14:17:43;6.28;;;4.88;;
9330;SDS011;4704;50.470;12.072;2022-12-28T14:20:11;5.35;;;4.85;;
9330;SDS011;4704;50.470;12.072;2022-12-28T14:22:39;4.93;;;4.45;;
9330;SDS011;4704;50.470;12.072;2022-12-28T14:25:08;4.45;;;4.05;;
9330;SDS011;4704;50.470;12.072;2022-12-28T14:27:37;4.55;;;4.15;;
9330;SDS011;4704;50.470;12.072;2022-12-28T14:30:19;5.40;;;4.28;;
9330;SDS011;4704;50.470;12.072;2022-12-28T14:32:47;4.60;;;4.20;;
9330;SDS011;4704;50.470;12.072;2022-12-28T14:35:15;4.55;;;4.15;;
9330;SDS011;4704;50.470;12.072;2022-12-28T14:37:43;4.63;;;4.00;;
9330;SDS011;4704;50.470;12.072;2022-12-28T14:40:15;4.22;;;3.83;;
9330;SDS011;4704;50.470;12.072;2022-12-28T14:42:47;4.97;;;4.03;;
9330;SDS011;4704;50.470;12.072;2022-12-28T14:45:29;4.60;;;3.60;;
9330;SDS011;4704;50.470;12.072;2022-12-28T14:48:01;3.72;;;3.25;;
9330;SDS011;4704;50.470;12.072;2022-12-28T14:50:28;3.80;;;3.40;;
9330;SDS011;4704;50.470;12.072;2022-12-28T14:53:00;3.58;;;3.28;;
9330;SDS011;4704;50.470;12.072;2022-12-28T14:55:29;3.47;;;3.17;;
9330;SDS011;4704;50.470;12.072;2022-12-28T14:57:58;3.67;;;3.40;;
9330;SDS011;4704;50.470;12.072;2022-12-28T15:00:28;3.63;;;3.30;;
9330;SDS011;4704;50.470;12.072;2022-12-28T15:02:56;3.60;;;3.05;;
9330;SDS011;4704;50.470;12.072;2022-12-28T15:05:34;3.45;;;3.10;;
9330;SDS011;4704;50.470;12.072;2022-12-28T15:08:01;3.38;;;3.08;;
9330;SDS011;4704;50.470;12.072;2022-12-28T15:10:29;3.38;;;3.08;;
9330;SDS011;4704;50.470;12.072;2022-12-28T15:12:57;6.20;;;4.00;;
9330;SDS011;4704;50.470;12.072;2022-12-28T15:15:25;3.60;;;3.30;;
9330;SDS011;4704;50.470;12.072;2022-12-28T15:17:54;3.90;;;3.50;;
9330;SDS011;4704;50.470;12.072;2022-12-28T15:20:21;3.92;;;3.50;;
9330;SDS011;4704;50.470;12.072;2022-12-28T15:22:49;3.58;;;3.25;;
9330;SDS011;4704;50.470;12.072;2022-12-28T15:25:16;3.85;;;3.28;;
9330;SDS011;4704;50.470;12.072;2022-12-28T15:27:47;3.83;;;3.10;;
9330;SDS011;4704;50.470;12.072;2022-12-28T15:30:14;3.85;;;3.45;;
9330;SDS011;4704;50.470;12.072;2022-12-28T15:32:42;3.42;;;3.05;;
9330;SDS011;4704;50.470;12.072;2022-12-28T15:35:11;5.18;;;3.20;;